createdAt,value
2022-12-24T00:01:38.021Z,7.30
2022-12-24T00:04:06.900Z,7.30
2022-12-24T00:06:35.513Z,7.30
2022-12-24T00:09:05.760Z,7.30
2022-12-24T00:11:34.219Z,7.30
2022-12-24T00:14:02.657Z,7.30
2022-12-24T00:16:31.048Z,7.20
2022-12-24T00:18:59.558Z,7.10
2022-12-24T00:21:28.025Z,7.10
2022-12-24T00:23:56.590Z,7.00
2022-12-24T00:26:26.401Z,7.00
2022-12-24T00:28:55.036Z,6.90
2022-12-24T00:31:23.445Z,6.90
2022-12-24T00:33:52.217Z,6.90
2022-12-24T00:36:21.795Z,6.90
2022-12-24T00:38:50.426Z,6.90
2022-12-24T00:41:29.307Z,6.90
2022-12-24T00:44:01.563Z,7.00
2022-12-24T00:46:31.896Z,7.00
2022-12-24T00:49:00.487Z,7.10
2022-12-24T00:51:29.653Z,7.20
2022-12-24T00:53:58.361Z,7.20
2022-12-24T00:56:26.830Z,7.30
2022-12-24T00:58:55.706Z,7.30
2022-12-24T01:01:26.265Z,7.40
2022-12-24T01:04:15.416Z,7.40
2022-12-24T01:06:42.688Z,7.40
2022-12-24T01:09:11.438Z,7.50
2022-12-24T01:11:40.061Z,7.50
2022-12-24T01:14:08.711Z,7.50
2022-12-24T01:16:38.907Z,7.60
2022-12-24T01:19:07.501Z,7.70
2022-12-24T01:21:36.234Z,7.70
2022-12-24T01:24:04.957Z,7.70
2022-12-24T01:26:33.530Z,7.70
2022-12-24T01:29:02.135Z,7.70
2022-12-24T01:31:30.752Z,7.80
2022-12-24T01:34:01.017Z,7.80
2022-12-24T01:36:29.670Z,7.80
2022-12-24T01:38:58.306Z,7.80
2022-12-24T01:41:44.517Z,7.80
2022-12-24T01:44:33.204Z,7.80
2022-12-24T01:47:09.507Z,7.80
2022-12-24T01:49:42.363Z,7.80
2022-12-24T01:52:15.289Z,7.80
2022-12-24T01:54:48.837Z,7.90
2022-12-24T01:57:23.389Z,7.90
2022-12-24T01:59:58.098Z,7.90
2022-12-24T02:02:27.488Z,7.80
2022-12-24T02:05:03.548Z,7.80
2022-12-24T02:07:32.868Z,7.80
2022-12-24T02:10:02.647Z,7.80
2022-12-24T02:12:36.414Z,7.80
2022-12-24T02:15:05.388Z,7.80
2022-12-24T02:17:41.377Z,7.80
2022-12-24T02:20:39.184Z,7.80
2022-12-24T02:23:36.007Z,7.80
2022-12-24T02:26:25.729Z,7.90
2022-12-24T02:29:20.569Z,8.00
2022-12-24T02:31:53.855Z,7.90
2022-12-24T02:34:30.244Z,7.80
2022-12-24T02:37:05.489Z,7.90
2022-12-24T02:39:41.671Z,7.90
2022-12-24T02:42:11.607Z,8.00
2022-12-24T02:44:46.031Z,8.00
2022-12-24T02:47:18.248Z,8.00
2022-12-24T02:49:48.684Z,8.00
2022-12-24T02:52:35.044Z,7.90
2022-12-24T02:55:07.475Z,7.80
2022-12-24T02:57:51.788Z,7.80
2022-12-24T03:00:22.178Z,7.80
2022-12-24T03:03:08.822Z,7.80
2022-12-24T03:05:43.748Z,7.80
2022-12-24T03:08:18.392Z,7.80
2022-12-24T03:10:55.185Z,7.80
2022-12-24T03:13:25.902Z,7.80
2022-12-24T03:15:54.482Z,7.80
2022-12-24T03:18:26.578Z,7.70
2022-12-24T03:21:00.398Z,7.70
2022-12-24T03:23:28.957Z,7.60
2022-12-24T03:25:57.460Z,7.70
2022-12-24T03:28:28.466Z,7.70
2022-12-24T03:30:56.982Z,7.70
2022-12-24T03:33:26.830Z,7.80
2022-12-24T03:35:55.372Z,7.80
2022-12-24T03:38:24.250Z,7.80
2022-12-24T03:40:52.667Z,7.80
2022-12-24T03:43:21.665Z,7.80
2022-12-24T03:45:50.333Z,7.80
2022-12-24T03:48:18.976Z,7.70
2022-12-24T03:50:49.330Z,7.70
2022-12-24T03:53:17.986Z,7.60
2022-12-24T03:55:46.467Z,7.70
2022-12-24T03:58:14.957Z,7.70
2022-12-24T04:00:43.611Z,7.70
2022-12-24T04:03:12.005Z,7.80
2022-12-24T04:05:40.721Z,7.70
2022-12-24T04:08:10.845Z,7.70
2022-12-24T04:10:39.442Z,7.70
2022-12-24T04:13:08.194Z,7.70
2022-12-24T04:15:36.635Z,7.70
2022-12-24T04:18:05.789Z,7.70
2022-12-24T04:20:34.818Z,7.70
2022-12-24T04:23:03.299Z,7.60
2022-12-24T04:25:33.447Z,7.60
2022-12-24T04:28:03.900Z,7.60
2022-12-24T04:30:32.706Z,7.60
2022-12-24T04:33:03.232Z,7.60
2022-12-24T04:35:31.903Z,7.60
2022-12-24T04:38:00.882Z,7.60
2022-12-24T04:40:29.445Z,7.60
2022-12-24T04:42:59.402Z,7.60
2022-12-24T04:45:28.360Z,7.60
2022-12-24T04:47:57.228Z,7.60
2022-12-24T04:50:25.851Z,7.60
2022-12-24T04:52:54.534Z,7.60
2022-12-24T04:55:23.245Z,7.60
2022-12-24T04:57:53.264Z,7.60
2022-12-24T05:00:23.779Z,7.50
2022-12-24T05:02:52.495Z,7.60
2022-12-24T05:05:21.459Z,7.60
2022-12-24T05:07:52.351Z,7.60
2022-12-24T05:10:20.875Z,7.60
2022-12-24T05:12:49.451Z,7.60
2022-12-24T05:15:18.217Z,7.70
2022-12-24T05:17:48.052Z,7.70
2022-12-24T05:20:16.580Z,7.70
2022-12-24T05:23:02.767Z,7.70
2022-12-24T05:25:55.328Z,7.80
2022-12-24T05:28:24.110Z,7.80
2022-12-24T05:30:53.203Z,7.80
2022-12-24T05:33:23.053Z,7.80
2022-12-24T05:35:53.311Z,7.80
2022-12-24T05:38:21.688Z,7.80
2022-12-24T05:40:50.294Z,7.70
2022-12-24T05:43:18.717Z,7.70
2022-12-24T05:45:47.303Z,7.70
2022-12-24T05:48:15.841Z,7.80
2022-12-24T05:50:46.285Z,7.70
2022-12-24T05:53:15.021Z,7.70
2022-12-24T05:55:43.827Z,7.80
2022-12-24T05:58:12.373Z,7.80
2022-12-24T06:00:48.277Z,7.70
2022-12-24T06:03:16.679Z,7.80
2022-12-24T06:08:37.375Z,7.80
2022-12-24T06:11:12.092Z,7.80
2022-12-24T06:13:42.348Z,7.80
2022-12-24T06:16:13.363Z,7.90
2022-12-24T06:18:54.585Z,7.90
2022-12-24T06:21:33.854Z,7.80
2022-12-24T06:24:21.436Z,7.80
2022-12-24T06:26:50.627Z,7.80
2022-12-24T06:29:19.561Z,7.70
2022-12-24T06:31:50.507Z,7.70
2022-12-24T06:34:36.805Z,7.70
2022-12-24T06:37:07.217Z,7.70
2022-12-24T06:39:35.809Z,7.70
2022-12-24T06:42:04.753Z,7.60
2022-12-24T06:44:33.196Z,7.60
2022-12-24T06:47:01.809Z,7.60
2022-12-24T06:49:30.186Z,7.60
2022-12-24T06:51:58.805Z,7.60
2022-12-24T06:54:28.746Z,7.60
2022-12-24T06:56:58.074Z,7.50
2022-12-24T06:59:26.628Z,7.50
2022-12-24T07:01:55.111Z,7.40
2022-12-24T07:04:23.643Z,7.40
2022-12-24T07:06:52.152Z,7.30
2022-12-24T07:09:20.658Z,7.30
2022-12-24T07:11:50.868Z,7.20
2022-12-24T07:14:19.517Z,7.20
2022-12-24T07:16:49.603Z,7.20
2022-12-24T07:19:21.003Z,7.10
2022-12-24T07:21:50.122Z,7.10
2022-12-24T07:24:20.412Z,7.10
2022-12-24T07:26:50.887Z,7.10
2022-12-24T07:29:19.660Z,7.10
2022-12-24T07:31:48.425Z,7.10
2022-12-24T07:34:17.102Z,7.10
2022-12-24T07:36:45.996Z,7.10
2022-12-24T07:39:14.765Z,7.10
2022-12-24T07:41:43.617Z,7.20
2022-12-24T07:44:15.570Z,7.20
2022-12-24T07:46:44.678Z,7.20
2022-12-24T07:49:13.572Z,7.20
2022-12-24T07:51:42.401Z,7.20
2022-12-24T07:54:11.188Z,7.20
2022-12-24T07:56:40.090Z,7.30
2022-12-24T07:59:08.634Z,7.30
2022-12-24T08:01:38.757Z,7.40
2022-12-24T08:04:07.612Z,7.50
2022-12-24T08:06:39.166Z,7.60
2022-12-24T08:09:07.853Z,7.60
2022-12-24T08:11:36.459Z,7.70
2022-12-24T08:14:04.804Z,7.80
2022-12-24T08:16:33.245Z,7.90
2022-12-24T08:19:03.253Z,8.00
2022-12-24T08:21:31.671Z,8.00
2022-12-24T08:24:00.021Z,8.00
2022-12-24T08:26:28.468Z,8.00
2022-12-24T08:28:57.360Z,8.00
2022-12-24T08:31:25.841Z,7.90
2022-12-24T08:33:54.216Z,7.90
2022-12-24T08:36:23.986Z,7.80
2022-12-24T08:38:52.411Z,7.90
2022-12-24T08:41:20.981Z,8.00
2022-12-24T08:43:49.651Z,8.00
2022-12-24T08:46:18.166Z,8.10
2022-12-24T08:48:46.670Z,8.20
2022-12-24T08:51:15.285Z,8.20
2022-12-24T08:53:45.138Z,8.30
2022-12-24T08:56:14.026Z,8.40
2022-12-24T08:58:42.548Z,8.40
2022-12-24T09:01:22.117Z,8.40
2022-12-24T09:03:50.801Z,8.40
2022-12-24T09:06:19.674Z,8.40
2022-12-24T09:08:49.584Z,8.40
2022-12-24T09:11:20.609Z,8.30
2022-12-24T09:13:49.391Z,8.30
2022-12-24T09:16:18.356Z,8.40
2022-12-24T09:18:46.973Z,8.40
2022-12-24T09:21:17.784Z,8.50
2022-12-24T09:23:49.748Z,8.50
2022-12-24T09:26:21.009Z,8.60
2022-12-24T09:28:50.123Z,8.60
2022-12-24T09:31:18.665Z,8.70
2022-12-24T09:33:49.030Z,8.60
2022-12-24T09:36:17.477Z,8.60
2022-12-24T09:38:46.365Z,8.50
2022-12-24T09:41:22.112Z,8.40
2022-12-24T09:43:57.961Z,8.30
2022-12-24T09:46:30.841Z,8.30
2022-12-24T09:49:04.214Z,8.20
2022-12-24T09:51:40.309Z,8.30
2022-12-24T09:54:16.947Z,8.30
2022-12-24T09:56:48.411Z,8.30
2022-12-24T09:59:19.363Z,8.40
2022-12-24T10:01:48.390Z,8.50
2022-12-24T10:04:18.363Z,8.50
2022-12-24T10:06:53.340Z,8.60
2022-12-24T10:09:33.339Z,8.70
2022-12-24T10:12:10.268Z,8.80
2022-12-24T10:14:56.746Z,8.90
2022-12-24T10:17:39.759Z,9.00
2022-12-24T10:20:23.943Z,8.90
2022-12-24T10:22:59.659Z,8.60
2022-12-24T10:25:31.714Z,8.40
2022-12-24T10:28:05.199Z,8.20
2022-12-24T10:30:39.585Z,8.20
2022-12-24T10:33:16.469Z,8.20
2022-12-24T10:35:50.183Z,8.30
2022-12-24T10:38:18.585Z,8.40
2022-12-24T10:40:50.185Z,8.40
2022-12-24T10:43:22.355Z,8.50
2022-12-24T10:45:55.196Z,8.60
2022-12-24T10:48:28.453Z,8.90
2022-12-24T10:51:04.844Z,9.10
2022-12-24T10:53:41.663Z,9.10
2022-12-24T10:56:14.404Z,8.90
2022-12-24T10:58:47.640Z,8.80
2022-12-24T11:01:16.209Z,8.70
2022-12-24T11:03:44.876Z,8.70
2022-12-24T11:06:15.193Z,8.70
2022-12-24T11:08:45.637Z,8.90
2022-12-24T11:11:17.261Z,9.00
2022-12-24T11:13:54.429Z,8.90
2022-12-24T11:16:27.852Z,8.80
2022-12-24T11:18:58.802Z,8.70
2022-12-24T11:21:32.068Z,8.60
2022-12-24T11:24:05.606Z,8.60
2022-12-24T11:26:36.768Z,8.60
2022-12-24T11:29:14.576Z,8.70
2022-12-24T11:31:46.588Z,8.70
2022-12-24T11:34:29.279Z,8.70
2022-12-24T11:37:14.660Z,8.60
2022-12-24T11:39:47.661Z,8.70
2022-12-24T11:42:27.802Z,8.60
2022-12-24T11:45:01.022Z,8.70
2022-12-24T11:47:37.633Z,8.80
2022-12-24T11:50:26.311Z,8.80
2022-12-24T11:53:00.648Z,8.80
2022-12-24T11:55:41.357Z,8.80
2022-12-24T11:58:22.675Z,8.80
2022-12-24T12:00:53.844Z,8.80
2022-12-24T12:03:31.866Z,8.80
2022-12-24T12:06:02.933Z,8.80
2022-12-24T12:08:32.824Z,8.80
2022-12-24T12:11:04.019Z,8.80
2022-12-24T12:13:34.207Z,8.70
2022-12-24T12:16:16.127Z,8.70
2022-12-24T12:18:50.852Z,8.70
2022-12-24T12:21:22.389Z,8.70
2022-12-24T12:23:53.850Z,8.70
2022-12-24T12:26:25.862Z,8.60
2022-12-24T12:28:59.216Z,8.50
2022-12-24T12:31:35.502Z,8.40
2022-12-24T12:34:11.204Z,8.40
2022-12-24T12:36:48.126Z,8.30
2022-12-24T12:39:19.823Z,8.30
2022-12-24T12:41:57.128Z,8.30
2022-12-24T12:44:49.565Z,8.40
2022-12-24T12:47:48.823Z,8.50
2022-12-24T12:50:24.548Z,8.50
2022-12-24T12:53:06.318Z,8.60
2022-12-24T12:55:44.266Z,8.70
2022-12-24T12:58:19.761Z,8.70
2022-12-24T13:01:00.590Z,8.80
2022-12-24T13:04:12.717Z,8.80
2022-12-24T13:07:13.043Z,8.80
2022-12-24T13:10:08.148Z,8.90
2022-12-24T13:13:00.179Z,8.90
2022-12-24T13:15:48.567Z,8.90
2022-12-24T13:18:45.501Z,9.00
2022-12-24T13:21:23.879Z,9.00
2022-12-24T13:23:52.916Z,9.00
2022-12-24T13:26:21.915Z,8.90
2022-12-24T13:28:50.461Z,8.90
2022-12-24T13:31:32.953Z,8.90
2022-12-24T13:34:04.269Z,8.90
2022-12-24T13:37:04.621Z,8.80
2022-12-24T13:40:06.213Z,8.70
2022-12-24T13:43:10.319Z,8.60
2022-12-24T13:45:55.766Z,8.50
2022-12-24T13:48:33.697Z,8.50
2022-12-24T13:51:20.407Z,8.40
2022-12-24T13:53:49.911Z,8.40
2022-12-24T13:56:33.959Z,8.40
2022-12-24T13:59:15.513Z,8.30
2022-12-24T14:01:45.532Z,8.20
2022-12-24T14:04:25.294Z,8.10
2022-12-24T14:06:57.927Z,8.10
2022-12-24T14:09:28.616Z,8.10
2022-12-24T14:12:31.840Z,8.00
2022-12-24T14:15:01.262Z,7.90
2022-12-24T14:17:31.235Z,7.80
2022-12-24T14:20:02.026Z,7.60
2022-12-24T14:22:35.515Z,7.50
2022-12-24T14:25:08.147Z,7.40
2022-12-24T14:27:46.076Z,7.40
2022-12-24T14:30:21.337Z,7.40
2022-12-24T14:32:51.259Z,7.40
2022-12-24T14:35:21.703Z,7.30
2022-12-24T14:37:58.340Z,7.30
2022-12-24T14:40:31.835Z,7.30
2022-12-24T14:43:07.309Z,7.20
2022-12-24T14:45:46.441Z,7.10
2022-12-24T14:48:22.534Z,7.10
2022-12-24T14:51:04.732Z,7.00
2022-12-24T14:53:49.504Z,7.00
2022-12-24T14:56:20.387Z,7.00
2022-12-24T14:58:52.500Z,7.00
2022-12-24T15:01:23.795Z,6.90
2022-12-24T15:04:03.091Z,6.90
2022-12-24T15:06:36.518Z,6.90
2022-12-24T15:09:14.765Z,6.90
2022-12-24T15:11:54.656Z,6.90
2022-12-24T15:14:25.091Z,6.80
2022-12-24T15:16:58.180Z,6.80
2022-12-24T15:19:30.208Z,6.80
2022-12-24T15:21:58.615Z,6.70
2022-12-24T15:24:32.569Z,6.70
2022-12-24T15:27:03.044Z,6.70
2022-12-24T15:29:33.712Z,6.70
2022-12-24T15:32:05.121Z,6.70
2022-12-24T15:34:40.176Z,6.70
2022-12-24T15:37:15.803Z,6.60
2022-12-24T15:39:46.856Z,6.60
2022-12-24T15:42:23.030Z,6.60
2022-12-24T15:45:00.000Z,6.60
2022-12-24T15:47:37.718Z,6.50
2022-12-24T15:50:19.480Z,6.50
2022-12-24T15:52:48.788Z,6.50
2022-12-24T15:55:41.661Z,6.50
2022-12-24T15:58:18.536Z,6.50
2022-12-24T16:01:05.884Z,6.50
2022-12-24T16:03:34.719Z,6.50
2022-12-24T16:06:03.724Z,6.50
2022-12-24T16:08:33.988Z,6.40
2022-12-24T16:11:19.469Z,6.50
2022-12-24T16:14:05.714Z,6.50
2022-12-24T16:16:37.357Z,6.50
2022-12-24T16:19:08.524Z,6.50
2022-12-24T16:21:39.250Z,6.50
2022-12-24T16:24:20.348Z,6.50
2022-12-24T16:26:53.709Z,6.60
2022-12-24T16:29:32.146Z,6.70
2022-12-24T16:35:04.433Z,6.70
2022-12-24T16:37:36.891Z,6.70
2022-12-24T16:40:10.232Z,6.70
2022-12-24T16:43:01.503Z,6.70
2022-12-24T16:45:31.533Z,6.70
2022-12-24T16:48:07.406Z,6.60
2022-12-24T16:50:36.249Z,6.70
2022-12-24T16:53:04.734Z,6.70
2022-12-24T16:55:33.154Z,6.60
2022-12-24T16:58:03.162Z,6.50
2022-12-24T17:00:31.922Z,6.40
2022-12-24T17:03:01.036Z,6.30
2022-12-24T17:05:35.296Z,6.20
2022-12-24T17:08:04.553Z,6.20
2022-12-24T17:10:36.719Z,6.20
2022-12-24T17:13:10.915Z,6.10
2022-12-24T17:15:43.584Z,6.00
2022-12-24T17:18:12.249Z,5.90
2022-12-24T17:20:40.597Z,5.80
2022-12-24T17:23:08.939Z,5.70
2022-12-24T17:25:43.416Z,5.60
2022-12-24T17:28:14.018Z,5.40
2022-12-24T17:30:42.478Z,5.30
2022-12-24T17:33:14.895Z,5.10
2022-12-24T17:35:44.767Z,5.00
2022-12-24T17:38:13.424Z,5.00
2022-12-24T17:40:41.818Z,4.90
2022-12-24T17:43:10.922Z,4.90
2022-12-24T17:45:43.405Z,4.90
2022-12-24T17:48:11.788Z,4.90
2022-12-24T17:50:40.993Z,4.90
2022-12-24T17:53:09.895Z,4.90
2022-12-24T17:55:43.271Z,4.90
2022-12-24T17:58:11.934Z,4.90
2022-12-24T18:00:40.878Z,4.90
2022-12-24T18:03:14.562Z,4.90
2022-12-24T18:05:43.884Z,5.00
2022-12-24T18:08:12.781Z,5.00
2022-12-24T18:10:41.316Z,5.10
2022-12-24T18:13:13.934Z,5.10
2022-12-24T18:15:47.440Z,5.10
2022-12-24T18:18:17.373Z,5.10
2022-12-24T18:20:47.135Z,5.00
2022-12-24T18:23:15.636Z,5.10
2022-12-24T18:25:44.290Z,5.00
2022-12-24T18:28:12.908Z,4.90
2022-12-24T18:30:41.740Z,4.80
2022-12-24T18:33:14.771Z,4.80
2022-12-24T18:35:47.577Z,4.80
2022-12-24T18:38:21.902Z,4.90
2022-12-24T18:41:08.294Z,4.90
2022-12-24T18:43:38.161Z,4.80
2022-12-24T18:46:10.310Z,4.80
2022-12-24T18:48:44.945Z,4.80
2022-12-24T18:51:16.579Z,4.90
2022-12-24T18:53:56.886Z,4.80
2022-12-24T18:56:27.897Z,4.70
2022-12-24T18:59:03.894Z,4.70
2022-12-24T19:01:35.076Z,4.50
2022-12-24T19:04:09.228Z,4.50
2022-12-24T19:06:50.749Z,4.40
2022-12-24T19:09:21.802Z,4.30
2022-12-24T19:12:05.169Z,4.20
2022-12-24T19:14:35.118Z,4.20
2022-12-24T19:17:06.564Z,4.10
2022-12-24T19:19:35.048Z,4.10
2022-12-24T19:22:17.176Z,4.10
2022-12-24T19:24:53.489Z,4.20
2022-12-24T19:27:26.862Z,4.20
2022-12-24T19:29:55.885Z,4.30
2022-12-24T19:32:25.018Z,4.40
2022-12-24T19:34:53.849Z,4.60
2022-12-24T19:37:25.406Z,4.60
2022-12-24T19:39:54.283Z,4.60
2022-12-24T19:42:35.393Z,4.70
2022-12-24T19:45:07.265Z,4.70
2022-12-24T19:47:35.865Z,4.70
2022-12-24T19:50:04.367Z,4.70
2022-12-24T19:52:54.683Z,4.70
2022-12-24T19:55:26.681Z,4.80
2022-12-24T19:57:55.237Z,4.70
2022-12-24T20:00:23.977Z,4.70
2022-12-24T20:02:52.815Z,4.70
2022-12-24T20:05:23.750Z,4.70
2022-12-24T20:07:53.940Z,4.70
2022-12-24T20:10:22.982Z,4.80
2022-12-24T20:12:51.630Z,4.80
2022-12-24T20:15:22.220Z,4.80
2022-12-24T20:17:52.329Z,4.90
2022-12-24T20:20:21.527Z,4.80
2022-12-24T20:22:50.358Z,4.80
2022-12-24T20:25:23.811Z,4.80
2022-12-24T20:27:52.620Z,4.90
2022-12-24T20:30:37.660Z,4.90
2022-12-24T20:33:08.929Z,4.90
2022-12-24T20:35:37.854Z,5.10
2022-12-24T20:38:09.188Z,5.20
2022-12-24T20:40:42.628Z,5.20
2022-12-24T20:43:11.319Z,5.20
2022-12-24T20:45:45.423Z,5.20
2022-12-24T20:48:14.481Z,5.20
2022-12-24T20:50:48.194Z,5.20
2022-12-24T20:53:20.377Z,5.20
2022-12-24T20:55:55.333Z,5.20
2022-12-24T20:58:29.612Z,5.20
2022-12-24T21:00:59.299Z,5.10
2022-12-24T21:03:28.950Z,5.10
2022-12-24T21:05:58.792Z,5.10
2022-12-24T21:08:36.676Z,5.10
2022-12-24T21:11:48.134Z,5.10
2022-12-24T21:14:25.909Z,5.10
2022-12-24T21:16:59.730Z,5.00
2022-12-24T21:19:40.437Z,5.00
2022-12-24T21:22:19.641Z,4.90
2022-12-24T21:24:49.325Z,4.90
2022-12-24T21:27:39.365Z,4.70
2022-12-24T21:33:08.943Z,4.60
2022-12-24T21:38:30.973Z,4.80
2022-12-24T21:41:06.346Z,4.70
2022-12-24T21:43:39.963Z,4.70
2022-12-24T21:46:10.609Z,4.60
2022-12-24T21:48:58.111Z,4.60
2022-12-24T21:51:47.644Z,4.70
2022-12-24T21:54:30.869Z,4.80
2022-12-24T21:57:22.506Z,4.80
2022-12-24T21:59:54.385Z,4.90
2022-12-24T22:02:43.941Z,5.00
2022-12-24T22:05:21.779Z,4.90
2022-12-24T22:08:07.725Z,4.80
2022-12-24T22:11:03.410Z,4.70
2022-12-24T22:19:53.334Z,4.40
2022-12-24T22:22:25.263Z,4.30
2022-12-24T22:28:06.521Z,4.10
2022-12-24T22:30:39.957Z,4.00
2022-12-24T22:33:29.201Z,3.90
2022-12-24T22:35:58.087Z,3.80
2022-12-24T22:38:39.298Z,3.70
2022-12-24T22:41:10.198Z,3.70
2022-12-24T22:43:39.995Z,3.60
2022-12-24T22:46:12.489Z,3.60
2022-12-24T22:48:46.374Z,3.50
2022-12-24T22:51:17.329Z,3.40
2022-12-24T22:53:48.187Z,3.40
2022-12-24T22:56:20.104Z,3.30
2022-12-24T22:58:55.645Z,3.30
2022-12-24T23:01:36.346Z,3.20
2022-12-24T23:04:10.906Z,3.10
2022-12-24T23:06:41.476Z,3.00
2022-12-24T23:09:12.390Z,2.90
2022-12-24T23:11:48.270Z,2.80
2022-12-24T23:14:38.323Z,2.80
2022-12-24T23:17:21.192Z,2.80
2022-12-24T23:19:56.669Z,2.80
2022-12-24T23:22:30.251Z,2.80
2022-12-24T23:25:00.058Z,2.80
2022-12-24T23:27:30.718Z,2.80
2022-12-24T23:29:59.615Z,2.70
2022-12-24T23:32:28.369Z,2.70
2022-12-24T23:35:05.734Z,2.60
2022-12-24T23:37:35.388Z,2.50
2022-12-24T23:40:07.238Z,2.50
2022-12-24T23:42:36.250Z,2.40
2022-12-24T23:45:05.456Z,2.50
2022-12-24T23:47:34.279Z,2.50
2022-12-24T23:50:05.344Z,2.60
2022-12-24T23:52:34.223Z,2.80
2022-12-24T23:55:02.978Z,2.90
2022-12-24T23:57:31.710Z,3.10
